createdAt,value
2023-03-15T00:00:07.727Z,100400.16
2023-03-15T00:02:34.343Z,100390.88
2023-03-15T00:05:00.942Z,100411.72
2023-03-15T00:07:27.486Z,100411.91
2023-03-15T00:09:54.448Z,100417.97
2023-03-15T00:12:23.194Z,100418.69
2023-03-15T00:14:50.528Z,100421.50
2023-03-15T00:17:17.440Z,100427.56
2023-03-15T00:19:44.013Z,100430.94
2023-03-15T00:22:10.686Z,100439.78
2023-03-15T00:24:37.241Z,100447.63
2023-03-15T00:27:04.265Z,100449.38
2023-03-15T00:29:31.109Z,100460.78
2023-03-15T00:31:57.678Z,100454.00
2023-03-15T00:34:27.195Z,100456.44
2023-03-15T00:36:53.754Z,100467.84
2023-03-15T00:39:21.074Z,100473.09
2023-03-15T00:41:47.693Z,100476.00
2023-03-15T00:44:14.557Z,100478.50
2023-03-15T00:46:41.179Z,100478.38
2023-03-15T00:49:07.780Z,100482.16
2023-03-15T00:51:34.405Z,100486.41
2023-03-15T00:54:00.958Z,100487.31
2023-03-15T00:56:30.397Z,100497.03
2023-03-15T00:58:58.824Z,100498.78
2023-03-15T01:01:27.661Z,100499.69
2023-03-15T01:03:54.536Z,100500.50
2023-03-15T01:06:23.594Z,100508.38
2023-03-15T01:08:51.521Z,100511.09
2023-03-15T01:11:24.337Z,100504.84
2023-03-15T01:13:52.212Z,100510.13
2023-03-15T01:16:19.085Z,100511.09
2023-03-15T01:18:45.705Z,100503.97
2023-03-15T01:21:14.236Z,100511.03
2023-03-15T01:23:41.043Z,100519.91
2023-03-15T01:26:10.519Z,100530.47
2023-03-15T01:28:37.224Z,100526.91
2023-03-15T01:31:04.083Z,100538.28
2023-03-15T01:33:30.757Z,100539.25
2023-03-15T01:36:02.921Z,100546.19
2023-03-15T01:38:30.576Z,100533.97
2023-03-15T01:40:57.527Z,100549.69
2023-03-15T01:43:26.170Z,100544.47
2023-03-15T01:46:25.411Z,100546.25
2023-03-15T01:49:02.957Z,100541.78
2023-03-15T01:51:37.088Z,100536.56
2023-03-15T01:54:19.567Z,100541.88
2023-03-15T01:57:10.121Z,100551.50
2023-03-15T01:59:40.258Z,100550.59
2023-03-15T02:02:07.639Z,100547.06
2023-03-15T02:04:37.843Z,100553.19
2023-03-15T02:07:05.543Z,100553.22
2023-03-15T02:09:41.879Z,100564.63
2023-03-15T02:12:09.465Z,100567.19
2023-03-15T02:14:36.025Z,100563.72
2023-03-15T02:17:04.672Z,100564.66
2023-03-15T02:19:40.539Z,100562.97
2023-03-15T02:22:14.540Z,100559.50
2023-03-15T02:24:58.705Z,100564.81
2023-03-15T02:27:29.116Z,100571.06
2023-03-15T02:29:55.708Z,100575.50
2023-03-15T02:32:22.320Z,100576.38
2023-03-15T02:34:49.361Z,100585.13
2023-03-15T02:37:15.924Z,100580.69
2023-03-15T02:39:42.574Z,100578.03
2023-03-15T02:42:12.257Z,100588.66
2023-03-15T02:44:40.364Z,100592.13
2023-03-15T02:47:14.260Z,100601.78
2023-03-15T02:49:43.011Z,100607.09
2023-03-15T02:52:10.060Z,100609.69
2023-03-15T02:54:36.784Z,100607.03
2023-03-15T02:57:04.096Z,100615.88
2023-03-15T02:59:31.365Z,100615.03
2023-03-15T03:01:58.041Z,100616.78
2023-03-15T03:04:24.668Z,100617.66
2023-03-15T03:06:51.321Z,100622.88
2023-03-15T03:09:23.118Z,100622.00
2023-03-15T03:11:49.798Z,100619.38
2023-03-15T03:14:16.421Z,100620.28
2023-03-15T03:16:43.083Z,100627.31
2023-03-15T03:19:12.603Z,100633.41
2023-03-15T03:21:43.325Z,100644.81
2023-03-15T03:24:12.131Z,100638.69
2023-03-15T03:26:39.067Z,100632.53
2023-03-15T03:29:08.390Z,100632.56
2023-03-15T03:31:35.106Z,100635.22
2023-03-15T03:34:02.297Z,100643.09
2023-03-15T03:36:30.351Z,100640.44
2023-03-15T03:38:57.329Z,100650.06
2023-03-15T03:41:24.541Z,100644.81
2023-03-15T03:43:51.098Z,100657.97
2023-03-15T03:46:18.249Z,100667.66
2023-03-15T03:48:49.308Z,100662.38
2023-03-15T03:51:15.922Z,100660.66
2023-03-15T03:53:42.546Z,100676.47
2023-03-15T03:56:09.290Z,100679.09
2023-03-15T03:58:36.700Z,100681.72
2023-03-15T04:01:14.066Z,100679.06
2023-03-15T04:03:40.939Z,100681.72
2023-03-15T04:06:16.422Z,100686.09
2023-03-15T04:08:45.337Z,100691.34
2023-03-15T04:11:17.974Z,100696.63
2023-03-15T04:13:50.571Z,100694.00
2023-03-15T04:16:17.209Z,100698.41
2023-03-15T04:19:00.606Z,100701.91
2023-03-15T04:21:32.087Z,100694.91
2023-03-15T04:24:10.522Z,100709.78
2023-03-15T04:26:58.023Z,100708.91
2023-03-15T04:29:48.942Z,100710.66
2023-03-15T04:32:34.136Z,100713.28
2023-03-15T04:35:20.824Z,100722.06
2023-03-15T04:38:07.018Z,100721.22
2023-03-15T04:40:45.695Z,100718.56
2023-03-15T04:43:37.700Z,100720.31
2023-03-15T04:46:23.470Z,100722.94
2023-03-15T04:49:08.838Z,100727.38
2023-03-15T04:51:54.003Z,100731.75
2023-03-15T04:54:29.436Z,100730.88
2023-03-15T04:57:14.961Z,100739.63
2023-03-15T04:59:48.760Z,100749.28
2023-03-15T05:02:27.118Z,100759.81
2023-03-15T05:05:19.631Z,100762.44
2023-03-15T05:08:03.848Z,100770.34
2023-03-15T05:10:48.393Z,100766.81
2023-03-15T05:13:43.927Z,100769.47
2023-03-15T05:16:10.521Z,100780.84
2023-03-15T05:19:02.022Z,100780.84
2023-03-15T05:21:55.818Z,100787.88
2023-03-15T05:24:36.670Z,100791.38
2023-03-15T05:27:21.674Z,100798.38
2023-03-15T05:29:56.836Z,100795.75
2023-03-15T05:32:44.944Z,100799.28
2023-03-15T05:35:30.531Z,100800.16
2023-03-15T05:38:07.046Z,100804.56
2023-03-15T05:40:57.900Z,100808.03
2023-03-15T05:43:43.090Z,100811.56
2023-03-15T05:46:33.428Z,100815.06
2023-03-15T05:49:16.770Z,100826.47
2023-03-15T05:52:03.402Z,100829.97
2023-03-15T05:54:49.116Z,100831.72
2023-03-15T05:57:29.940Z,100840.47
2023-03-15T06:00:09.322Z,100844.88
2023-03-15T06:02:45.620Z,100859.75
2023-03-15T06:05:25.760Z,100860.66
2023-03-15T06:07:53.196Z,100869.44
2023-03-15T06:10:20.723Z,100868.56
2023-03-15T06:12:47.319Z,100872.06
2023-03-15T06:15:16.597Z,100874.69
2023-03-15T06:17:44.348Z,100875.59
2023-03-15T06:20:12.701Z,100879.06
2023-03-15T06:22:39.300Z,100866.81
2023-03-15T06:25:15.549Z,100886.97
2023-03-15T06:27:42.200Z,100891.38
2023-03-15T06:30:09.683Z,100891.34
2023-03-15T06:32:36.304Z,100895.72
2023-03-15T06:35:05.010Z,100890.47
2023-03-15T06:37:35.381Z,100901.00
2023-03-15T06:40:07.387Z,100912.38
2023-03-15T06:42:34.341Z,100912.38
2023-03-15T06:45:01.290Z,100903.59
2023-03-15T06:47:28.211Z,100914.94
2023-03-15T06:49:56.821Z,100924.59
2023-03-15T06:52:23.835Z,100933.34
2023-03-15T06:54:50.385Z,100927.16
2023-03-15T06:57:16.970Z,100941.22
2023-03-15T06:59:43.548Z,100928.03
2023-03-15T07:02:14.691Z,100940.31
2023-03-15T07:04:41.302Z,100938.50
2023-03-15T07:07:07.891Z,100936.75
2023-03-15T07:09:34.536Z,100953.47
2023-03-15T07:12:01.216Z,100944.66
2023-03-15T07:14:27.851Z,100932.31
2023-03-15T07:16:54.473Z,100949.81
2023-03-15T07:19:23.868Z,100948.91
2023-03-15T07:21:50.434Z,100952.38
2023-03-15T07:24:17.044Z,100947.97
2023-03-15T07:26:43.696Z,100962.81
2023-03-15T07:29:10.293Z,100942.69
2023-03-15T07:31:37.435Z,100962.00
2023-03-15T07:34:04.337Z,100960.22
2023-03-15T07:36:32.345Z,100967.22
2023-03-15T07:38:58.989Z,100967.34
2023-03-15T07:41:25.525Z,100975.28
2023-03-15T07:43:58.880Z,100979.53
2023-03-15T07:46:25.592Z,100972.44
2023-03-15T07:48:52.211Z,100975.00
2023-03-15T07:51:18.781Z,100972.38
2023-03-15T07:53:45.352Z,100981.94
2023-03-15T07:56:11.911Z,100983.75
2023-03-15T07:58:38.512Z,100981.91
2023-03-15T08:01:05.269Z,100982.78
2023-03-15T08:03:32.177Z,100974.91
2023-03-15T08:05:58.754Z,100989.78
2023-03-15T08:08:26.319Z,100981.00
2023-03-15T08:10:52.969Z,100983.53
2023-03-15T08:13:19.759Z,100987.97
2023-03-15T08:15:47.182Z,100991.59
2023-03-15T08:18:14.314Z,100996.66
2023-03-15T08:20:41.032Z,100999.00
2023-03-15T08:23:09.178Z,101004.41
2023-03-15T08:25:40.732Z,101002.28
2023-03-15T08:28:07.424Z,101005.84
2023-03-15T08:30:34.149Z,101002.88
2023-03-15T08:33:00.815Z,101005.47
2023-03-15T08:35:28.191Z,101006.38
2023-03-15T08:37:55.549Z,101016.81
2023-03-15T08:40:25.344Z,101026.53
2023-03-15T08:42:53.058Z,101032.25
2023-03-15T08:45:20.317Z,101040.97
2023-03-15T08:47:46.955Z,101042.78
2023-03-15T08:50:15.224Z,101042.03
2023-03-15T08:52:42.182Z,101051.03
2023-03-15T08:55:09.328Z,101056.50
2023-03-15T08:57:35.914Z,101054.47
2023-03-15T09:00:10.476Z,101064.19
2023-03-15T09:02:37.633Z,101064.84
2023-03-15T09:05:07.137Z,101062.19
2023-03-15T09:07:34.426Z,101060.91
2023-03-15T09:10:02.437Z,101078.53
2023-03-15T09:12:30.858Z,101075.78
2023-03-15T09:14:57.451Z,101082.72
2023-03-15T09:17:24.048Z,101078.56
2023-03-15T09:19:52.577Z,101086.03
2023-03-15T09:22:34.838Z,101091.88
2023-03-15T09:25:05.216Z,101095.19
2023-03-15T09:27:32.286Z,101094.16
2023-03-15T09:29:58.881Z,101092.63
2023-03-15T09:32:25.508Z,101091.69
2023-03-15T09:34:52.052Z,101112.94
2023-03-15T09:37:18.833Z,101089.88
2023-03-15T09:39:45.382Z,101116.00
2023-03-15T09:42:24.823Z,101121.03
2023-03-15T09:45:01.232Z,101117.47
2023-03-15T09:47:40.378Z,101123.13
2023-03-15T09:50:31.902Z,101132.53
2023-03-15T09:53:01.276Z,101128.94
2023-03-15T09:55:28.952Z,101135.06
2023-03-15T09:58:03.580Z,101137.91
2023-03-15T10:00:39.866Z,101131.38
2023-03-15T10:03:10.046Z,101125.75
2023-03-15T10:05:45.150Z,101135.81
2023-03-15T10:08:13.602Z,101144.34
2023-03-15T10:10:50.252Z,101138.91
2023-03-15T10:13:24.942Z,101143.25
2023-03-15T10:16:30.807Z,101153.16
2023-03-15T10:19:07.147Z,101151.34
2023-03-15T10:21:49.499Z,101151.09
2023-03-15T10:24:20.145Z,101150.25
2023-03-15T10:29:33.824Z,101156.72
2023-03-15T10:32:00.575Z,101136.69
2023-03-15T10:34:27.286Z,101154.41
2023-03-15T10:36:55.256Z,101153.28
2023-03-15T10:39:22.424Z,101153.78
2023-03-15T10:41:50.425Z,101157.47
2023-03-15T10:44:20.648Z,101165.88
2023-03-15T10:47:22.604Z,101168.03
2023-03-15T10:49:50.829Z,101173.72
2023-03-15T10:52:34.994Z,101169.75
2023-03-15T10:55:16.997Z,101162.72
2023-03-15T10:57:55.623Z,101165.09
2023-03-15T11:00:34.035Z,101169.56
2023-03-15T11:03:04.225Z,101172.47
2023-03-15T11:05:38.123Z,101178.13
2023-03-15T11:08:04.861Z,101173.16
2023-03-15T11:10:34.633Z,101166.03
2023-03-15T11:13:12.432Z,101169.94
2023-03-15T11:15:41.391Z,101161.84
2023-03-15T11:18:17.875Z,101160.22
2023-03-15T11:20:45.448Z,101160.31
2023-03-15T11:23:33.829Z,101163.06
2023-03-15T11:26:01.392Z,101161.81
2023-03-15T11:28:30.996Z,101164.50
2023-03-15T11:31:00.867Z,101155.78
2023-03-15T11:33:47.520Z,101161.44
2023-03-15T11:36:18.348Z,101155.59
2023-03-15T11:38:45.890Z,101160.06
2023-03-15T11:41:23.415Z,101163.00
2023-03-15T11:44:08.395Z,101155.31
2023-03-15T11:46:40.584Z,101162.06
2023-03-15T11:49:30.940Z,101174.25
2023-03-15T11:51:57.901Z,101179.31
2023-03-15T11:54:26.694Z,101173.00
2023-03-15T11:56:55.551Z,101176.84
2023-03-15T11:59:28.621Z,101181.34
2023-03-15T12:02:18.218Z,101182.41
2023-03-15T12:04:46.379Z,101174.03
2023-03-15T12:07:19.021Z,101167.66
2023-03-15T12:09:52.457Z,101173.00
2023-03-15T12:12:24.907Z,101174.09
2023-03-15T12:15:03.519Z,101170.72
2023-03-15T12:17:39.693Z,101170.16
2023-03-15T12:20:19.162Z,101160.56
2023-03-15T12:22:54.132Z,101171.13
2023-03-15T12:25:48.872Z,101156.34
2023-03-15T12:28:41.299Z,101161.53
2023-03-15T12:31:15.276Z,101162.63
2023-03-15T12:33:51.621Z,101178.56
2023-03-15T12:36:39.322Z,101173.75
2023-03-15T12:39:15.062Z,101180.63
2023-03-15T12:41:43.900Z,101176.78
2023-03-15T12:44:32.220Z,101177.72
2023-03-15T12:47:02.982Z,101170.75
2023-03-15T12:49:43.929Z,101169.88
2023-03-15T12:52:16.531Z,101169.13
2023-03-15T12:54:46.134Z,101177.56
2023-03-15T12:57:15.100Z,101176.59
2023-03-15T13:00:01.096Z,101188.09
2023-03-15T13:03:07.656Z,101177.25
2023-03-15T13:06:10.540Z,101171.75
2023-03-15T13:08:48.468Z,101170.53
2023-03-15T13:11:36.652Z,101170.25
2023-03-15T13:14:05.495Z,101173.47
2023-03-15T13:16:40.019Z,101174.78
2023-03-15T13:19:35.967Z,101180.66
2023-03-15T13:22:24.093Z,101176.53
2023-03-15T13:24:57.892Z,101179.00
2023-03-15T13:27:44.157Z,101176.72
2023-03-15T13:30:35.096Z,101179.97
2023-03-15T13:33:05.328Z,101181.28
2023-03-15T13:35:32.379Z,101181.44
2023-03-15T13:38:23.714Z,101200.91
2023-03-15T13:40:51.680Z,101220.50
2023-03-15T13:43:19.763Z,101233.81
2023-03-15T13:45:46.607Z,101249.63
2023-03-15T13:48:13.456Z,101234.84
2023-03-15T13:50:40.569Z,101239.19
2023-03-15T13:53:07.242Z,101235.91
2023-03-15T13:55:36.061Z,101230.69
2023-03-15T13:58:08.034Z,101240.13
2023-03-15T14:00:36.574Z,101232.84
2023-03-15T14:03:09.133Z,101241.16
2023-03-15T14:05:44.535Z,101235.63
2023-03-15T14:08:22.254Z,101242.69
2023-03-15T14:11:24.137Z,101242.84
2023-03-15T14:13:58.891Z,101251.59
2023-03-15T14:16:53.285Z,101249.88
2023-03-15T14:19:29.885Z,101240.94
2023-03-15T14:21:58.519Z,101246.47
2023-03-15T14:24:35.603Z,101240.78
2023-03-15T14:27:05.950Z,101240.41
2023-03-15T14:29:34.750Z,101234.34
2023-03-15T14:32:08.975Z,101240.88
2023-03-15T14:34:37.010Z,101238.03
2023-03-15T14:37:24.237Z,101233.56
2023-03-15T14:39:51.639Z,101241.44
2023-03-15T14:42:18.229Z,101232.47
2023-03-15T14:44:44.906Z,101242.47
2023-03-15T14:47:15.093Z,101238.38
2023-03-15T14:49:41.673Z,101242.34
2023-03-15T14:52:08.574Z,101226.78
2023-03-15T14:54:35.184Z,101235.34
2023-03-15T14:57:01.786Z,101248.06
2023-03-15T14:59:28.399Z,101241.34
2023-03-15T15:01:57.273Z,101240.19
2023-03-15T15:04:24.383Z,101242.66
2023-03-15T15:06:51.216Z,101248.66
2023-03-15T15:09:21.152Z,101250.75
2023-03-15T15:11:47.721Z,101246.16
2023-03-15T15:14:17.648Z,101264.22
2023-03-15T15:16:44.423Z,101261.13
2023-03-15T15:19:11.387Z,101261.09
2023-03-15T15:21:38.533Z,101264.00
2023-03-15T15:24:11.412Z,101267.47
2023-03-15T15:26:38.048Z,101265.19
2023-03-15T15:29:09.696Z,101255.16
2023-03-15T15:31:36.418Z,101265.53
2023-03-15T15:34:03.066Z,101267.44
2023-03-15T15:36:44.647Z,101281.97
2023-03-15T15:39:22.291Z,101284.13
2023-03-15T15:41:49.759Z,101279.34
2023-03-15T15:44:19.049Z,101284.47
2023-03-15T15:46:45.752Z,101281.88
2023-03-15T15:49:12.819Z,101291.66
2023-03-15T15:51:42.840Z,101296.47
2023-03-15T15:54:36.397Z,101294.47
2023-03-15T15:57:03.119Z,101300.88
2023-03-15T15:59:30.866Z,101305.09
2023-03-15T16:02:02.253Z,101315.50
2023-03-15T16:04:29.501Z,101338.09
2023-03-15T16:06:58.734Z,101348.19
2023-03-15T16:09:27.354Z,101360.22
2023-03-15T16:11:53.923Z,101360.00
2023-03-15T16:14:20.862Z,101369.53
2023-03-15T16:16:48.722Z,101372.16
2023-03-15T16:19:15.364Z,101375.34
2023-03-15T16:21:47.951Z,101371.09
2023-03-15T16:24:26.474Z,101382.44
2023-03-15T16:26:58.004Z,101370.69
2023-03-15T16:29:27.342Z,101381.13
2023-03-15T16:31:55.928Z,101379.63
2023-03-15T16:34:26.217Z,101376.91
2023-03-15T16:36:55.770Z,101377.50
2023-03-15T16:39:22.809Z,101384.06
2023-03-15T16:41:49.378Z,101386.59
2023-03-15T16:44:17.462Z,101393.47
2023-03-15T16:46:44.629Z,101390.75
2023-03-15T16:49:12.042Z,101394.25
2023-03-15T16:51:42.178Z,101395.19
2023-03-15T16:54:21.750Z,101406.66
2023-03-15T16:56:54.221Z,101412.97
2023-03-15T16:59:21.285Z,101412.94
2023-03-15T17:01:49.447Z,101416.00
2023-03-15T17:04:16.474Z,101422.88
2023-03-15T17:06:45.478Z,101422.88
2023-03-15T17:09:15.044Z,101428.97
2023-03-15T17:11:43.759Z,101431.88
2023-03-15T17:14:15.202Z,101443.25
2023-03-15T17:16:42.678Z,101440.75
2023-03-15T17:19:13.488Z,101445.09
2023-03-15T17:21:40.532Z,101450.34
2023-03-15T17:24:10.967Z,101445.03
2023-03-15T17:26:41.847Z,101445.03
2023-03-15T17:29:09.005Z,101466.16
2023-03-15T17:31:35.791Z,101460.84
2023-03-15T17:36:49.401Z,101465.31
2023-03-15T17:39:18.514Z,101467.13
2023-03-15T17:41:50.347Z,101475.97
2023-03-15T17:44:26.464Z,101466.34
2023-03-15T17:46:54.064Z,101479.56
2023-03-15T17:49:21.572Z,101485.78
2023-03-15T17:51:48.197Z,101484.91
2023-03-15T17:54:16.960Z,101486.66
2023-03-15T17:56:43.953Z,101491.94
2023-03-15T17:59:11.926Z,101493.72
2023-03-15T18:01:40.938Z,101490.22
2023-03-15T18:04:12.115Z,101493.72
2023-03-15T18:06:38.997Z,101495.47
2023-03-15T18:09:05.998Z,101495.47
2023-03-15T18:11:35.837Z,101500.78
2023-03-15T18:14:05.075Z,101506.06
2023-03-15T18:16:32.081Z,101502.56
2023-03-15T18:18:59.176Z,101519.25
2023-03-15T18:21:28.456Z,101511.34
2023-03-15T18:23:55.335Z,101523.66
2023-03-15T18:26:22.860Z,101523.63
2023-03-15T18:28:50.055Z,101542.16
2023-03-15T18:31:46.279Z,101529.84
2023-03-15T18:34:22.012Z,101540.44
2023-03-15T18:36:48.849Z,101544.75
2023-03-15T18:39:15.496Z,101542.13
2023-03-15T18:41:54.719Z,101553.59
2023-03-15T18:44:26.809Z,101550.06
2023-03-15T18:46:53.934Z,101552.69
2023-03-15T18:49:41.786Z,101550.06
2023-03-15T18:52:14.957Z,101542.84
2023-03-15T18:54:41.545Z,101549.09
2023-03-15T18:57:08.184Z,101556.19
2023-03-15T18:59:34.745Z,101561.50
2023-03-15T19:02:01.494Z,101566.81
2023-03-15T19:04:28.084Z,101565.06
2023-03-15T19:06:54.670Z,101563.25
2023-03-15T19:09:21.255Z,101575.56
2023-03-15T19:11:47.956Z,101563.25
2023-03-15T19:14:14.546Z,101556.19
2023-03-15T19:16:41.216Z,101574.72
2023-03-15T19:19:07.815Z,101573.81
2023-03-15T19:21:34.481Z,101573.81
2023-03-15T19:24:01.060Z,101565.88
2023-03-15T19:26:27.838Z,101563.19
2023-03-15T19:28:54.502Z,101574.66
2023-03-15T19:31:21.845Z,101579.97
2023-03-15T19:33:48.965Z,101575.53
2023-03-15T19:36:15.665Z,101579.94
2023-03-15T19:38:42.670Z,101589.59
2023-03-15T19:41:12.431Z,101593.09
2023-03-15T19:43:42.379Z,101578.13
2023-03-15T19:46:09.959Z,101588.72
2023-03-15T19:48:36.601Z,101605.44
2023-03-15T19:51:03.337Z,101601.91
2023-03-15T19:53:30.454Z,101600.00
2023-03-15T19:55:57.350Z,101608.84
2023-03-15T19:58:24.086Z,101602.66
2023-03-15T20:00:52.105Z,101598.22
2023-03-15T20:03:18.708Z,101606.16
2023-03-15T20:05:45.279Z,101618.47
2023-03-15T20:08:11.864Z,101616.72
2023-03-15T20:10:38.469Z,101619.28
2023-03-15T20:13:05.149Z,101625.44
2023-03-15T20:15:32.268Z,101631.63
2023-03-15T20:17:58.914Z,101627.19
2023-03-15T20:20:25.465Z,101614.84
2023-03-15T20:22:52.082Z,101626.28
2023-03-15T20:25:20.210Z,101630.66
2023-03-15T20:27:47.246Z,101628.03
2023-03-15T20:30:15.407Z,101630.59
2023-03-15T20:32:43.643Z,101618.16
2023-03-15T20:35:11.005Z,101638.38
2023-03-15T20:37:40.540Z,101640.19
2023-03-15T20:40:11.668Z,101650.72
2023-03-15T20:42:38.325Z,101648.91
2023-03-15T20:45:06.950Z,101659.44
2023-03-15T20:47:34.312Z,101655.00
2023-03-15T20:50:01.972Z,101664.66
2023-03-15T20:52:28.883Z,101663.69
2023-03-15T20:54:55.530Z,101663.69
2023-03-15T20:57:22.122Z,101668.03
2023-03-15T20:59:51.470Z,101670.69
2023-03-15T21:02:18.072Z,101673.25
2023-03-15T21:04:44.709Z,101680.22
2023-03-15T21:07:11.551Z,101681.06
2023-03-15T21:09:38.139Z,101680.19
2023-03-15T21:12:04.714Z,101680.06
2023-03-15T21:14:32.716Z,101678.31
2023-03-15T21:17:01.837Z,101683.56
2023-03-15T21:19:29.373Z,101680.94
2023-03-15T21:21:57.048Z,101682.59
2023-03-15T21:24:23.666Z,101681.66
2023-03-15T21:26:54.810Z,101677.31
2023-03-15T21:29:22.292Z,101681.66
2023-03-15T21:31:49.221Z,101678.06
2023-03-15T21:34:16.102Z,101692.97
2023-03-15T21:36:42.865Z,101687.69
2023-03-15T21:39:10.955Z,101685.88
2023-03-15T21:41:38.126Z,101694.63
2023-03-15T21:44:04.967Z,101692.88
2023-03-15T21:46:31.872Z,101690.19
2023-03-15T21:48:58.636Z,101688.41
2023-03-15T21:51:25.531Z,101682.22
2023-03-15T21:53:52.164Z,101693.66
2023-03-15T21:56:18.862Z,101693.63
2023-03-15T21:58:45.461Z,101699.75
2023-03-15T22:01:14.983Z,101697.97
2023-03-15T22:03:42.679Z,101696.16
2023-03-15T22:06:09.239Z,101702.22
2023-03-15T22:08:35.848Z,101710.09
2023-03-15T22:11:02.418Z,101707.41
2023-03-15T22:13:30.061Z,101709.03
2023-03-15T22:15:56.669Z,101709.88
2023-03-15T22:18:23.383Z,101720.44
2023-03-15T22:20:51.184Z,101724.81
2023-03-15T22:23:18.469Z,101724.81
2023-03-15T22:25:45.081Z,101721.22
2023-03-15T22:28:11.747Z,101723.81
2023-03-15T22:30:38.862Z,101721.13
2023-03-15T22:33:05.628Z,101736.09
2023-03-15T22:35:33.898Z,101730.84
2023-03-15T22:38:00.590Z,101736.88
2023-03-15T22:40:28.401Z,101738.63
2023-03-15T22:42:57.261Z,101738.59
2023-03-15T22:45:26.139Z,101741.19
2023-03-15T22:47:53.161Z,101743.88
2023-03-15T22:50:20.169Z,101749.91
2023-03-15T22:52:46.784Z,101750.75
2023-03-15T22:55:13.793Z,101759.59
2023-03-15T22:57:40.353Z,101751.69
2023-03-15T23:00:13.588Z,101746.44
2023-03-15T23:02:41.548Z,101739.34
2023-03-15T23:05:08.593Z,101750.78
2023-03-15T23:07:35.272Z,101753.41
2023-03-15T23:10:01.873Z,101749.88
2023-03-15T23:12:35.792Z,101751.66
2023-03-15T23:15:04.512Z,101757.78
2023-03-15T23:17:31.403Z,101751.56
2023-03-15T23:19:58.040Z,101755.13
2023-03-15T23:22:24.642Z,101755.97
2023-03-15T23:24:51.655Z,101761.16
2023-03-15T23:27:18.231Z,101767.25
2023-03-15T23:29:54.103Z,101761.94
2023-03-15T23:32:21.696Z,101766.31
2023-03-15T23:34:48.243Z,101770.63
2023-03-15T23:37:15.360Z,101767.09
2023-03-15T23:39:42.298Z,101763.56
2023-03-15T23:42:09.383Z,101766.19
2023-03-15T23:44:36.136Z,101769.66
2023-03-15T23:47:08.688Z,101770.47
2023-03-15T23:49:35.372Z,101773.06
2023-03-15T23:52:06.240Z,101774.78
2023-03-15T23:54:39.826Z,101767.78
2023-03-15T23:57:08.226Z,101781.84
2023-03-15T23:59:36.097Z,101778.06
